sensor_id;sensor_type;location;lat;lon;timestamp;P1;durP1;ratioP1;P2;durP2;ratioP2
45314;SDS011;31051;51.540;5.852;2023-05-10T00:09:30;13.7;;;12.4;;
45314;SDS011;31051;51.540;5.852;2023-05-10T00:22:29;12.5;;;11.4;;
45314;SDS011;31051;51.540;5.852;2023-05-10T00:35:28;10.2;;;9.2;;
45314;SDS011;31051;51.540;5.852;2023-05-10T00:48:28;10.5;;;9.4;;
45314;SDS011;31051;51.540;5.852;2023-05-10T01:01:27;12.5;;;11.2;;
45314;SDS011;31051;51.540;5.852;2023-05-10T01:14:26;14.5;;;12.3;;
45314;SDS011;31051;51.540;5.852;2023-05-10T01:27:26;17.8;;;15.1;;
45314;SDS011;31051;51.540;5.852;2023-05-10T01:40:25;14.9;;;13.2;;
45314;SDS011;31051;51.540;5.852;2023-05-10T01:53:24;15.1;;;13.5;;
45314;SDS011;31051;51.540;5.852;2023-05-10T02:06:24;20.0;;;17.4;;
45314;SDS011;31051;51.540;5.852;2023-05-10T02:19:23;33.1;;;25.2;;
45314;SDS011;31051;51.540;5.852;2023-05-10T02:32:22;41.4;;;31.1;;
45314;SDS011;31051;51.540;5.852;2023-05-10T02:45:22;46.0;;;35.0;;
45314;SDS011;31051;51.540;5.852;2023-05-10T02:58:21;45.3;;;35.1;;
45314;SDS011;31051;51.540;5.852;2023-05-10T03:11:20;39.3;;;32.2;;
45314;SDS011;31051;51.540;5.852;2023-05-10T03:24:20;40.1;;;33.0;;
45314;SDS011;31051;51.540;5.852;2023-05-10T03:37:19;40.2;;;33.7;;
45314;SDS011;31051;51.540;5.852;2023-05-10T03:50:18;40.1;;;34.4;;
45314;SDS011;31051;51.540;5.852;2023-05-10T04:03:18;36.7;;;32.2;;
45314;SDS011;31051;51.540;5.852;2023-05-10T04:16:17;33.9;;;30.2;;
45314;SDS011;31051;51.540;5.852;2023-05-10T04:29:16;35.8;;;32.0;;
45314;SDS011;31051;51.540;5.852;2023-05-10T04:42:16;38.2;;;33.4;;
45314;SDS011;31051;51.540;5.852;2023-05-10T04:55:15;42.1;;;34.0;;
45314;SDS011;31051;51.540;5.852;2023-05-10T05:08:14;45.1;;;35.1;;
45314;SDS011;31051;51.540;5.852;2023-05-10T05:21:14;50.4;;;37.1;;
45314;SDS011;31051;51.540;5.852;2023-05-10T05:34:13;60.4;;;41.5;;
45314;SDS011;31051;51.540;5.852;2023-05-10T05:47:12;49.9;;;35.9;;
45314;SDS011;31051;51.540;5.852;2023-05-10T06:00:12;35.2;;;28.9;;
45314;SDS011;31051;51.540;5.852;2023-05-10T06:13:11;30.3;;;25.8;;
45314;SDS011;31051;51.540;5.852;2023-05-10T06:26:10;25.8;;;22.6;;
45314;SDS011;31051;51.540;5.852;2023-05-10T06:39:10;23.5;;;20.8;;
45314;SDS011;31051;51.540;5.852;2023-05-10T06:52:09;23.7;;;20.9;;
45314;SDS011;31051;51.540;5.852;2023-05-10T07:05:08;22.2;;;19.9;;
45314;SDS011;31051;51.540;5.852;2023-05-10T07:18:08;22.0;;;19.4;;
45314;SDS011;31051;51.540;5.852;2023-05-10T07:31:07;21.4;;;19.2;;
45314;SDS011;31051;51.540;5.852;2023-05-10T07:44:06;22.4;;;20.0;;
45314;SDS011;31051;51.540;5.852;2023-05-10T07:57:06;24.1;;;21.2;;
45314;SDS011;31051;51.540;5.852;2023-05-10T08:10:05;25.8;;;22.8;;
45314;SDS011;31051;51.540;5.852;2023-05-10T08:23:05;27.2;;;24.3;;
45314;SDS011;31051;51.540;5.852;2023-05-10T08:36:04;28.9;;;25.4;;
45314;SDS011;31051;51.540;5.852;2023-05-10T08:49:03;27.6;;;24.7;;
45314;SDS011;31051;51.540;5.852;2023-05-10T09:02:02;25.3;;;22.6;;
45314;SDS011;31051;51.540;5.852;2023-05-10T09:15:02;22.5;;;19.9;;
45314;SDS011;31051;51.540;5.852;2023-05-10T09:28:01;19.1;;;17.2;;
45314;SDS011;31051;51.540;5.852;2023-05-10T09:41:00;13.1;;;11.3;;
45314;SDS011;31051;51.540;5.852;2023-05-10T09:54:00;11.6;;;9.2;;
45314;SDS011;31051;51.540;5.852;2023-05-10T10:06:59;8.6;;;7.6;;
45314;SDS011;31051;51.540;5.852;2023-05-10T10:19:58;9.6;;;7.6;;
45314;SDS011;31051;51.540;5.852;2023-05-10T10:32:58;8.4;;;7.3;;
45314;SDS011;31051;51.540;5.852;2023-05-10T10:45:57;6.8;;;6.0;;
45314;SDS011;31051;51.540;5.852;2023-05-10T10:58:56;7.6;;;6.4;;
45314;SDS011;31051;51.540;5.852;2023-05-10T11:11:56;8.4;;;7.4;;
45314;SDS011;31051;51.540;5.852;2023-05-10T11:24:55;9.6;;;8.7;;
45314;SDS011;31051;51.540;5.852;2023-05-10T11:37:55;10.2;;;9.0;;
45314;SDS011;31051;51.540;5.852;2023-05-10T11:50:54;8.6;;;7.8;;
45314;SDS011;31051;51.540;5.852;2023-05-10T12:03:53;7.4;;;6.7;;
45314;SDS011;31051;51.540;5.852;2023-05-10T12:16:53;11.2;;;9.7;;
45314;SDS011;31051;51.540;5.852;2023-05-10T12:29:52;13.1;;;11.9;;
45314;SDS011;31051;51.540;5.852;2023-05-10T12:42:51;8.9;;;8.1;;
45314;SDS011;31051;51.540;5.852;2023-05-10T12:55:51;4.4;;;4.1;;
45314;SDS011;31051;51.540;5.852;2023-05-10T13:08:50;4.6;;;4.2;;
45314;SDS011;31051;51.540;5.852;2023-05-10T13:21:49;4.7;;;4.0;;
45314;SDS011;31051;51.540;5.852;2023-05-10T13:34:49;7.1;;;6.5;;
45314;SDS011;31051;51.540;5.852;2023-05-10T13:47:48;7.1;;;6.4;;
45314;SDS011;31051;51.540;5.852;2023-05-10T14:00:48;7.2;;;6.6;;
45314;SDS011;31051;51.540;5.852;2023-05-10T14:13:47;5.5;;;4.9;;
45314;SDS011;31051;51.540;5.852;2023-05-10T14:26:46;8.2;;;7.5;;
45314;SDS011;31051;51.540;5.852;2023-05-10T14:39:46;9.0;;;8.2;;
45314;SDS011;31051;51.540;5.852;2023-05-10T14:52:45;10.0;;;9.2;;
45314;SDS011;31051;51.540;5.852;2023-05-10T15:05:44;9.1;;;8.4;;
45314;SDS011;31051;51.540;5.852;2023-05-10T15:18:44;8.4;;;7.6;;
45314;SDS011;31051;51.540;5.852;2023-05-10T15:31:43;9.1;;;8.2;;
45314;SDS011;31051;51.540;5.852;2023-05-10T15:44:42;10.3;;;9.4;;
45314;SDS011;31051;51.540;5.852;2023-05-10T15:57:42;10.5;;;9.6;;
45314;SDS011;31051;51.540;5.852;2023-05-10T16:10:41;10.2;;;9.4;;
45314;SDS011;31051;51.540;5.852;2023-05-10T16:23:40;9.6;;;8.8;;
45314;SDS011;31051;51.540;5.852;2023-05-10T16:36:40;10.5;;;9.5;;
45314;SDS011;31051;51.540;5.852;2023-05-10T16:49:39;12.0;;;11.0;;
45314;SDS011;31051;51.540;5.852;2023-05-10T17:02:38;10.8;;;9.8;;
45314;SDS011;31051;51.540;5.852;2023-05-10T17:15:38;9.2;;;8.3;;
45314;SDS011;31051;51.540;5.852;2023-05-10T17:28:37;10.0;;;9.1;;
45314;SDS011;31051;51.540;5.852;2023-05-10T17:41:37;11.9;;;10.8;;
45314;SDS011;31051;51.540;5.852;2023-05-10T17:54:36;13.4;;;12.2;;
45314;SDS011;31051;51.540;5.852;2023-05-10T18:07:35;9.8;;;8.9;;
45314;SDS011;31051;51.540;5.852;2023-05-10T18:20:35;6.3;;;5.5;;
45314;SDS011;31051;51.540;5.852;2023-05-10T18:33:34;4.2;;;3.7;;
45314;SDS011;31051;51.540;5.852;2023-05-10T18:46:33;4.9;;;4.1;;
45314;SDS011;31051;51.540;5.852;2023-05-10T18:59:33;5.3;;;4.8;;
45314;SDS011;31051;51.540;5.852;2023-05-10T19:12:32;5.4;;;4.8;;
45314;SDS011;31051;51.540;5.852;2023-05-10T19:25:31;5.9;;;5.3;;
45314;SDS011;31051;51.540;5.852;2023-05-10T19:38:30;5.5;;;5.0;;
45314;SDS011;31051;51.540;5.852;2023-05-10T19:51:30;6.8;;;6.0;;
45314;SDS011;31051;51.540;5.852;2023-05-10T20:04:29;6.4;;;5.4;;
45314;SDS011;31051;51.540;5.852;2023-05-10T20:17:28;5.7;;;5.0;;
45314;SDS011;31051;51.540;5.852;2023-05-10T20:30:28;6.7;;;6.1;;
45314;SDS011;31051;51.540;5.852;2023-05-10T20:43:27;8.8;;;8.0;;
45314;SDS011;31051;51.540;5.852;2023-05-10T20:56:26;9.4;;;8.5;;
45314;SDS011;31051;51.540;5.852;2023-05-10T21:09:26;11.5;;;10.4;;
45314;SDS011;31051;51.540;5.852;2023-05-10T21:22:25;14.0;;;12.7;;
45314;SDS011;31051;51.540;5.852;2023-05-10T21:35:25;16.6;;;15.1;;
45314;SDS011;31051;51.540;5.852;2023-05-10T21:48:24;16.3;;;14.8;;
45314;SDS011;31051;51.540;5.852;2023-05-10T22:01:23;19.3;;;17.5;;
45314;SDS011;31051;51.540;5.852;2023-05-10T22:14:22;20.3;;;18.5;;
45314;SDS011;31051;51.540;5.852;2023-05-10T22:27:22;20.3;;;18.4;;
45314;SDS011;31051;51.540;5.852;2023-05-10T22:40:21;21.1;;;19.1;;
45314;SDS011;31051;51.540;5.852;2023-05-10T22:53:20;23.2;;;21.0;;
45314;SDS011;31051;51.540;5.852;2023-05-10T23:06:20;23.3;;;21.1;;
45314;SDS011;31051;51.540;5.852;2023-05-10T23:19:19;24.4;;;22.0;;
45314;SDS011;31051;51.540;5.852;2023-05-10T23:32:18;27.0;;;24.1;;
45314;SDS011;31051;51.540;5.852;2023-05-10T23:45:18;24.6;;;22.2;;
45314;SDS011;31051;51.540;5.852;2023-05-10T23:58:17;23.9;;;21.5;;
